Time;durP1;ratioP1;P1;durP2;ratioP2;P2;SDS_P1;SDS_P2;PMS_P1;PMS_P2;Temp;Humidity;BMP_temperature;BMP_pressure;BME280_temperature;BME280_humidity;BME280_pressure;Samples;Min_cycle;Max_cycle;Signal;HPM_P1;HPM_P2
2021/03/31 00:02:00;;;;;;;22.88;12.88;;;;;;;4.08;73.93;99252.72;10635152;27;20096;-51
2021/03/31 00:07:02;;;;;;;26.95;14.05;;;;;;;4.12;74.10;99242.94;10634925;27;20087;-51
2021/03/31 00:12:04;;;;;;;22.75;12.48;;;;;;;4.15;74.38;99233.16;10636413;27;20115;-51
2021/03/31 00:17:06;;;;;;;25.42;15.50;;;;;;;4.20;73.93;99229.44;10637949;27;20039;-54
2021/03/31 00:22:08;;;;;;;22.38;13.18;;;;;;;4.21;74.38;99233.69;10635344;27;20395;-54
2021/03/31 00:27:09;;;;;;;25.00;13.48;;;;;;;4.28;74.37;99209.78;10636521;27;20396;-51
2021/03/31 00:32:12;;;;;;;25.20;14.35;;;;;;;4.29;74.13;99218.44;10634231;27;20055;-52
2021/03/31 00:37:14;;;;;;;23.98;14.65;;;;;;;4.33;74.09;99220.72;10634193;27;20051;-51
2021/03/31 00:42:15;;;;;;;28.00;15.02;;;;;;;4.36;74.28;99209.25;10635035;27;20061;-53
2021/03/31 00:47:18;;;;;;;27.20;14.48;;;;;;;4.38;74.52;99202.19;10613532;27;20047;-55
2021/03/31 00:52:19;;;;;;;25.33;14.93;;;;;;;4.44;74.41;99196.56;10591105;28;20055;-53
2021/03/31 00:57:21;;;;;;;26.73;15.23;;;;;;;4.46;74.68;99194.69;10591349;28;20142;-54
2021/03/31 01:02:24;;;;;;;25.88;14.10;;;;;;;4.52;74.62;99186.44;10589403;28;20051;-53
2021/03/31 01:07:26;;;;;;;25.33;15.82;;;;;;;4.60;74.70;99191.16;10588071;28;20051;-53
2021/03/31 01:13:04;;;;;;;28.63;16.70;;;;;;;4.68;74.77;99190.59;10590190;28;20059;-52
2021/03/31 01:18:12;;;;;;;28.48;16.02;;;;;;;4.68;74.29;99190.59;10589191;28;20046;-53
2021/03/31 01:24:02;;;;;;;27.92;15.23;;;;;;;4.71;74.75;99182.59;10611621;27;20039;-53
2021/03/31 01:29:21;;;;;;;24.73;15.07;;;;;;;4.76;74.59;99164.88;10529384;27;20051;-52
2021/03/31 01:34:36;;;;;;;31.15;15.07;;;;;;;4.81;74.78;99173.22;10633319;27;20055;-52
2021/03/31 01:39:40;;;;;;;32.67;17.27;;;;;;;4.84;74.18;99162.59;10631830;27;20493;-58
2021/03/31 01:44:43;;;;;;;26.63;14.23;;;;;;;4.87;74.31;99167.56;10630504;27;20515;-52
2021/03/31 01:49:47;;;;;;;31.70;16.67;;;;;;;4.88;74.46;99158.00;10631574;27;20475;-53
2021/03/31 01:54:50;;;;;;;30.25;15.45;;;;;;;4.94;74.39;99158.38;10632612;27;20059;-52
2021/03/31 01:59:54;;;;;;;25.83;14.93;;;;;;;4.97;74.34;99147.75;10632604;27;20084;-52
2021/03/31 02:04:56;;;;;;;28.48;15.35;;;;;;;4.94;74.45;99142.75;10632420;27;20160;-52
2021/03/31 02:09:59;;;;;;;28.60;16.15;;;;;;;4.96;74.38;99140.88;10631193;27;20035;-54
2021/03/31 02:15:01;;;;;;;32.45;17.42;;;;;;;4.97;74.58;99134.72;10633536;27;20051;-52
2021/03/31 02:20:06;;;;;;;31.70;16.73;;;;;;;4.98;74.41;99128.56;10631324;27;20038;-53
2021/03/31 02:25:11;;;;;;;27.10;14.90;;;;;;;5.11;74.53;99127.69;10631066;27;20082;-51
2021/03/31 02:30:15;;;;;;;28.30;15.57;;;;;;;5.10;74.38;99131.25;10631156;27;20111;-56
2021/03/31 02:35:21;;;;;;;28.15;14.70;;;;;;;5.10;74.37;99126.03;10635027;27;20050;-55
2021/03/31 02:40:25;;;;;;;28.70;15.93;;;;;;;5.07;74.61;99130.50;10629957;27;20133;-52
2021/03/31 02:45:28;;;;;;;;;;;;;;;5.21;74.53;99128.72;10629123;27;20047;-55
2021/03/31 02:50:31;;;;;;;27.35;14.88;;;;;;;5.12;74.51;99124.97;10628216;27;19931;-52
2021/03/31 02:55:33;;;;;;;32.50;17.85;;;;;;;5.16;74.95;99120.38;10627955;27;20051;-51
2021/03/31 03:00:35;;;;;;;30.42;16.42;;;;;;;5.27;74.79;99123.06;10615721;27;20040;-52
2021/03/31 03:05:38;;;;;;;33.40;18.50;;;;;;;5.21;74.38;99118.28;10585426;28;20051;-52
2021/03/31 03:10:39;;;;;;;32.05;17.80;;;;;;;5.27;74.77;99117.84;10584470;28;20048;-51
2021/03/31 03:15:42;;;;;;;32.83;18.60;;;;;;;5.32;74.20;99111.31;10585953;28;20051;-49
2021/03/31 03:20:45;;;;;;;32.47;16.40;;;;;;;5.32;74.20;99115.72;10586669;28;20044;-54
2021/03/31 03:25:48;;;;;;;32.78;17.95;;;;;;;5.36;74.36;99109.34;10584777;28;20067;-53
2021/03/31 03:30:50;;;;;;;39.17;18.63;;;;;;;5.38;74.58;99110.06;10584349;28;20051;-54
2021/03/31 03:35:53;;;;;;;33.10;17.65;;;;;;;5.45;74.29;99108.69;10584823;28;20138;-52
2021/03/31 03:40:55;;;;;;;34.80;16.42;;;;;;;5.49;74.25;99106.66;10585197;28;20050;-55
2021/03/31 03:45:59;;;;;;;33.22;17.17;;;;;;;5.56;74.32;99101.84;10584315;28;20040;-53
2021/03/31 03:51:04;;;;;;;;;;;;;;;5.69;74.54;99102.56;10584835;28;20043;-55
2021/03/31 03:56:11;;;;;;;38.28;18.77;;;;;;;5.61;74.32;99084.06;10585578;28;19924;-52
2021/03/31 04:01:13;;;;;;;33.67;18.25;;;;;;;5.68;74.27;99090.50;10583888;28;20383;-53
2021/03/31 04:06:15;;;;;;;31.08;17.30;;;;;;;5.77;74.08;99081.97;10583837;28;20047;-55
2021/03/31 04:11:17;;;;;;;33.17;18.10;;;;;;;5.76;74.08;99088.16;10583710;28;20047;-52
2021/03/31 04:16:19;;;;;;;30.77;16.92;;;;;;;5.77;74.41;99090.63;10584090;28;20067;-55
2021/03/31 04:21:22;;;;;;;28.42;15.15;;;;;;;5.88;74.46;99092.44;10584053;28;20043;-54
2021/03/31 04:26:24;;;;;;;31.58;16.48;;;;;;;5.88;74.09;99100.28;10584097;28;20376;-52
2021/03/31 04:31:28;;;;;;;33.65;18.13;;;;;;;5.92;74.23;99099.09;10582998;28;20035;-50
2021/03/31 04:36:31;;;;;;;33.72;17.17;;;;;;;5.90;74.09;99103.56;10583021;28;20134;-53
2021/03/31 04:41:33;;;;;;;35.65;17.52;;;;;;;5.99;74.31;99091.66;10586360;28;20415;-52
2021/03/31 04:46:35;;;;;;;30.73;17.20;;;;;;;6.02;74.18;99087.97;10593260;28;20062;-59
2021/03/31 04:51:37;;;;;;;28.27;16.05;;;;;;;6.11;74.31;99077.66;10592494;28;20116;-53
2021/03/31 04:56:39;;;;;;;27.33;15.43;;;;;;;6.17;74.22;99081.59;10604327;27;20452;-51
2021/03/31 05:01:41;;;;;;;31.88;16.25;;;;;;;6.12;74.34;99079.31;10632553;27;20110;-53
2021/03/31 05:06:43;;;;;;;32.22;16.88;;;;;;;6.18;74.24;99084.06;10632674;27;20116;-52
2021/03/31 05:11:45;;;;;;;29.95;16.67;;;;;;;6.23;74.25;99073.28;10632612;27;20073;-54
2021/03/31 05:16:46;;;;;;;29.00;15.73;;;;;;;6.25;73.84;99071.41;10633452;27;20051;-54
2021/03/31 05:21:49;;;;;;;27.25;15.27;;;;;;;6.33;74.28;99079.44;10632947;27;20043;-53
2021/03/31 05:26:50;;;;;;;25.70;14.68;;;;;;;6.37;73.92;99078.28;10630970;27;20076;-55
2021/03/31 05:31:52;;;;;;;34.97;17.77;;;;;;;6.35;74.24;99085.38;10631635;27;20047;-53
2021/03/31 05:36:55;;;;;;;27.15;15.38;;;;;;;6.51;74.00;99084.19;10631062;27;20066;-52
2021/03/31 05:41:56;;;;;;;28.45;14.80;;;;;;;6.58;73.81;99090.59;10631235;27;20047;-52
2021/03/31 05:46:58;;;;;;;32.17;16.45;;;;;;;6.60;73.99;99078.25;10631565;27;20047;-53
2021/03/31 05:52:01;;;;;;;23.90;13.75;;;;;;;6.66;74.30;99088.22;10629491;27;20039;-53
2021/03/31 05:57:04;;;;;;;27.45;15.07;;;;;;;6.71;74.33;99080.00;10631355;27;20074;-52
2021/03/31 06:02:06;;;;;;;26.02;13.98;;;;;;;6.75;74.27;99074.44;10631336;27;20200;-54
2021/03/31 06:07:09;;;;;;;24.92;14.88;;;;;;;6.82;74.42;99078.19;10630048;27;20051;-52
2021/03/31 06:12:10;;;;;;;29.35;15.82;;;;;;;6.92;74.48;99079.13;10631590;27;20039;-54
2021/03/31 06:17:13;;;;;;;26.83;13.88;;;;;;;7.10;74.30;99070.75;10630220;27;20047;-52
2021/03/31 06:22:20;;;;;;;21.17;12.30;;;;;;;7.10;73.99;99070.75;10631130;27;20051;-51
2021/03/31 06:27:28;;;;;;;23.45;13.35;;;;;;;7.07;74.34;99078.84;10630352;27;20062;-56
2021/03/31 06:32:36;;;;;;;23.90;13.27;;;;;;;7.09;73.82;99069.13;10630541;27;20088;-52
2021/03/31 06:37:38;;;;;;;20.98;12.77;;;;;;;7.25;73.93;99077.38;10628966;27;20055;-52
2021/03/31 06:42:43;;;;;;;23.83;12.90;;;;;;;7.30;73.76;99080.44;10628859;27;20051;-55
2021/03/31 06:47:52;;;;;;;21.23;13.02;;;;;;;7.35;74.13;99080.06;10632017;27;20047;-51
2021/03/31 06:52:56;;;;;;;17.85;10.63;;;;;;;7.44;74.03;99083.69;10631913;27;20487;-50
2021/03/31 06:57:59;;;;;;;22.73;12.75;;;;;;;7.58;74.14;99072.94;10634705;27;20495;-52
2021/03/31 07:03:04;;;;;;;21.38;11.93;;;;;;;7.72;74.17;99071.78;10628765;27;20509;-54
2021/03/31 07:08:08;;;;;;;21.33;11.05;;;;;;;7.89;73.94;99067.78;10627281;27;20051;-53
2021/03/31 07:13:10;;;;;;;19.52;11.02;;;;;;;7.93;73.89;99062.13;10627843;27;20050;-52
2021/03/31 07:18:12;;;;;;;18.08;10.98;;;;;;;8.01;73.69;99072.78;10628064;27;20464;-52
2021/03/31 07:23:15;;;;;;;16.10;8.88;;;;;;;8.32;73.39;99058.88;10627724;27;20068;-52
2021/03/31 07:28:20;;;;;;;16.53;9.77;;;;;;;8.39;72.97;99063.47;10626803;27;20051;-52
2021/03/31 07:33:26;;;;;;;14.80;8.82;;;;;;;8.49;73.28;99056.47;10626963;27;20039;-52
2021/03/31 07:38:29;;;;;;;14.90;9.95;;;;;;;8.64;72.83;99054.31;10627147;27;20050;-51
2021/03/31 07:43:34;;;;;;;13.88;8.55;;;;;;;8.94;72.78;99055.22;10627644;27;20047;-53
2021/03/31 07:48:38;;;;;;;13.45;8.38;;;;;;;8.90;72.55;99053.84;10628025;27;20074;-54
2021/03/31 07:53:44;;;;;;;11.85;7.75;;;;;;;8.75;72.80;99048.97;10628035;28;20498;-51
2021/03/31 07:59:09;;;;;;;14.85;9.05;;;;;;;8.73;73.42;99052.69;10626786;27;20054;-54
2021/03/31 08:04:11;;;;;;;14.88;8.02;;;;;;;8.95;72.41;99049.81;10626399;27;20066;-54
2021/03/31 08:09:22;;;;;;;11.60;7.50;;;;;;;8.93;72.43;99041.28;10626063;27;20047;-54
2021/03/31 08:14:51;;;;;;;11.90;7.63;;;;;;;9.04;72.42;99035.06;10626934;27;20499;-54
2021/03/31 08:19:53;;;;;;;11.05;7.10;;;;;;;9.08;72.49;99041.72;10635577;27;20359;-51
2021/03/31 08:24:57;;;;;;;14.00;7.90;;;;;;;9.04;72.35;99040.31;10634886;27;20055;-51
2021/03/31 08:30:00;;;;;;;15.18;8.35;;;;;;;9.07;71.96;99042.66;10633937;27;20057;-52
2021/03/31 08:35:02;;;;;;;14.70;8.90;;;;;;;9.16;71.31;99044.44;10635907;27;20390;-52
2021/03/31 08:40:07;;;;;;;12.75;8.38;;;;;;;9.21;71.69;99044.06;10635656;27;20069;-52
2021/03/31 08:45:09;;;;;;;15.07;8.73;;;;;;;9.34;71.56;99038.53;10633941;27;20075;-54
2021/03/31 08:50:11;;;;;;;14.93;8.95;;;;;;;9.51;71.10;99021.22;10634452;27;20054;-54
2021/03/31 08:55:14;;;;;;;13.48;8.60;;;;;;;9.42;71.54;99026.38;10633684;27;20051;-55
2021/03/31 09:00:17;;;;;;;11.82;7.90;;;;;;;9.15;71.87;99015.75;10635102;27;20047;-52
2021/03/31 09:05:19;;;;;;;13.43;8.90;;;;;;;9.20;71.97;99008.28;10633672;27;20043;-52
2021/03/31 09:10:21;;;;;;;13.27;8.60;;;;;;;9.29;72.06;99006.63;10633058;27;20039;-51
2021/03/31 09:15:23;;;;;;;14.07;8.52;;;;;;;9.41;71.85;99016.00;10632408;27;20055;-51
2021/03/31 09:20:25;;;;;;;14.15;8.63;;;;;;;9.56;71.65;99008.53;10634862;27;20058;-50
2021/03/31 09:25:27;;;;;;;14.18;8.77;;;;;;;9.76;71.66;99009.28;10635371;27;20174;-52
2021/03/31 09:30:29;;;;;;;14.32;8.95;;;;;;;9.83;71.32;99013.03;10632202;27;20054;-52
2021/03/31 09:35:30;;;;;;;14.30;10.07;;;;;;;9.83;71.36;99011.22;10632307;27;20100;-53
2021/03/31 09:40:35;;;;;;;12.82;8.70;;;;;;;9.84;71.88;99006.78;10631015;27;20054;-52
2021/03/31 09:45:37;;;;;;;13.43;8.27;;;;;;;9.90;71.73;99011.47;10635157;27;20049;-55
2021/03/31 09:50:39;;;;;;;13.25;9.35;;;;;;;9.88;71.49;99016.03;10632267;27;20112;-53
2021/03/31 09:55:42;;;;;;;14.18;9.13;;;;;;;9.94;71.33;99006.75;10632153;27;20103;-53
2021/03/31 10:00:44;;;;;;;15.25;10.60;;;;;;;9.99;71.41;98994.84;10612373;27;20057;-51
2021/03/31 10:05:46;;;;;;;15.00;9.43;;;;;;;10.03;71.39;98996.22;10629903;27;20475;-52
2021/03/31 10:10:51;;;;;;;18.83;10.02;;;;;;;10.11;71.15;98996.34;10630820;27;20039;-55
2021/03/31 10:15:57;;;;;;;16.90;10.60;;;;;;;10.12;71.17;98999.78;10631227;27;20141;-53
2021/03/31 10:21:00;;;;;;;19.92;11.90;;;;;;;10.18;71.27;98986.06;10630124;27;20043;-52
2021/03/31 10:26:18;;;;;;;17.38;11.65;;;;;;;10.26;70.74;98990.59;10629242;27;20051;-52
2021/03/31 10:31:29;;;;;;;16.30;11.15;;;;;;;10.12;70.60;98992.72;10627932;27;20051;-56
2021/03/31 10:36:48;;;;;;;19.17;11.35;;;;;;;10.21;71.02;99000.72;10630104;27;20043;-55
2021/03/31 10:47:17;;;;;;;19.83;10.80;;;;;;;10.48;70.76;98987.59;10630200;27;20039;-55
2021/03/31 10:52:21;;;;;;;17.55;10.77;;;;;;;10.48;70.49;98977.09;10629632;27;20134;-51
2021/03/31 10:57:23;;;;;;;22.65;11.60;;;;;;;10.31;70.50;98978.72;10629637;27;20068;-52
2021/03/31 11:02:25;;;;;;;18.15;10.65;;;;;;;10.12;70.34;98979.59;10627636;27;20103;-51
2021/03/31 11:07:27;;;;;;;19.85;11.48;;;;;;;10.04;70.46;98976.06;10630022;27;20043;-52
2021/03/31 11:12:29;;;;;;;18.50;11.15;;;;;;;9.99;70.54;98968.59;10629704;27;20162;-53
2021/03/31 11:17:37;;;;;;;19.50;12.30;;;;;;;9.88;70.95;98960.91;10633558;27;20050;-59
2021/03/31 11:28:01;;;;;;;19.95;11.75;;;;;;;10.01;71.05;98950.91;10612147;27;20063;-52
2021/03/31 11:33:03;;;;;;;16.67;9.95;;;;;;;10.03;71.19;98935.81;10626289;27;20039;-52
2021/03/31 11:38:05;;;;;;;17.25;10.93;;;;;;;10.04;70.86;98940.13;10627237;27;20058;-53
2021/03/31 11:43:10;;;;;;;18.80;11.65;;;;;;;10.08;71.15;98936.22;10627515;27;20043;-54
2021/03/31 11:48:12;;;;;;;15.98;10.55;;;;;;;10.19;71.29;98942.25;10626522;27;20495;-55
2021/03/31 11:53:14;;;;;;;17.00;10.32;;;;;;;10.14;70.81;98935.63;10627086;27;20038;-50
2021/03/31 11:58:16;;;;;;;17.83;10.07;;;;;;;10.13;71.16;98927.91;10627828;28;20047;-53
2021/03/31 12:03:20;;;;;;;16.95;10.35;;;;;;;10.17;70.68;98925.81;10628056;28;20472;-55
2021/03/31 12:08:22;;;;;;;17.02;9.63;;;;;;;10.04;71.18;98921.75;10629256;27;20051;-52
2021/03/31 12:13:24;;;;;;;19.33;10.38;;;;;;;9.99;71.03;98915.28;10629124;28;20051;-53
2021/03/31 12:18:26;;;;;;;15.75;9.25;;;;;;;10.07;71.09;98918.00;10627191;27;20066;-59
2021/03/31 12:23:28;;;;;;;17.13;9.45;;;;;;;10.11;70.79;98904.41;10627569;28;20103;-55
2021/03/31 12:28:33;;;;;;;18.13;9.57;;;;;;;9.98;70.49;98893.44;10624756;28;20422;-51
2021/03/31 12:33:36;;;;;;;19.67;11.38;;;;;;;9.88;70.92;98876.91;10625474;27;20352;-51
2021/03/31 12:38:37;;;;;;;15.20;10.27;;;;;;;9.96;71.13;98873.56;10625585;27;20059;-52
2021/03/31 12:43:40;;;;;;;16.50;9.95;;;;;;;10.00;71.12;98867.84;10627149;28;20047;-52
2021/03/31 12:48:42;;;;;;;13.93;8.80;;;;;;;9.99;71.23;98862.75;10625764;28;20057;-56
2021/03/31 12:53:46;;;;;;;14.13;9.27;;;;;;;9.99;71.50;98858.31;10626460;28;20057;-56
2021/03/31 12:58:49;;;;;;;13.43;8.45;;;;;;;10.08;70.46;98840.88;10627943;27;20051;-54
2021/03/31 13:03:51;;;;;;;15.38;9.73;;;;;;;9.96;70.73;98834.16;10629414;27;20071;-53
2021/03/31 13:08:54;;;;;;;17.38;9.55;;;;;;;9.93;71.16;98832.66;10633757;27;20491;-54
2021/03/31 13:24:40;;;;;;;13.95;7.93;;;;;;;10.06;70.94;98846.25;10631743;27;20491;-53
2021/03/31 13:35:17;;;;;;;14.57;8.73;;;;;;;9.95;70.69;98833.34;10633754;27;20051;-55
2021/03/31 13:40:20;;;;;;;18.13;9.98;;;;;;;9.75;70.03;98819.50;10630602;27;20425;-54
2021/03/31 13:45:22;;;;;;;15.57;9.48;;;;;;;9.61;70.73;98812.97;10631413;27;20345;-51
2021/03/31 13:50:25;;;;;;;16.07;9.27;;;;;;;9.56;70.98;98814.38;10630234;27;20043;-53
2021/03/31 13:55:31;;;;;;;17.05;10.23;;;;;;;9.53;71.06;98807.59;10631407;27;20486;-53
2021/03/31 14:00:35;;;;;;;17.45;10.18;;;;;;;9.51;70.63;98819.22;10630410;27;20139;-55
2021/03/31 14:05:36;;;;;;;18.63;11.68;;;;;;;9.45;70.87;98812.75;10630668;27;20415;-52
2021/03/31 14:10:38;;;;;;;19.05;10.07;;;;;;;9.39;70.80;98813.31;10629937;27;20092;-55
2021/03/31 14:15:41;;;;;;;19.90;11.23;;;;;;;9.35;70.85;98806.72;10630581;27;20090;-53
2021/03/31 14:20:42;;;;;;;21.08;12.02;;;;;;;9.38;70.40;98798.56;10628548;27;20054;-53
2021/03/31 14:25:44;;;;;;;21.08;11.82;;;;;;;9.25;70.83;98800.69;10629839;27;20058;-52
2021/03/31 14:30:47;;;;;;;18.60;11.63;;;;;;;9.17;70.83;98786.50;10634824;27;20043;-54
2021/03/31 14:35:48;;;;;;;21.23;12.73;;;;;;;8.97;71.42;98783.13;10628951;27;20057;-52
2021/03/31 14:40:50;;;;;;;19.33;10.82;;;;;;;8.86;71.86;98780.66;10630579;27;20047;-53
2021/03/31 14:45:52;;;;;;;18.48;10.95;;;;;;;8.93;71.64;98780.97;10631326;27;20476;-52
2021/03/31 14:50:55;;;;;;;18.35;11.55;;;;;;;9.04;71.25;98780.75;10631414;27;20043;-54
2021/03/31 15:01:23;;;;;;;20.02;11.57;;;;;;;9.13;70.62;98777.28;10571880;27;20047;-54
2021/03/31 15:06:25;;;;;;;18.88;10.63;;;;;;;9.11;70.78;98776.63;10628020;27;20055;-53
2021/03/31 15:11:26;;;;;;;20.65;11.57;;;;;;;9.02;71.24;98753.88;10628009;27;20049;-53
2021/03/31 15:16:29;;;;;;;25.60;12.80;;;;;;;8.97;71.00;98764.78;10628954;27;20077;-53
2021/03/31 15:21:35;;;;;;;19.33;11.48;;;;;;;8.99;71.25;98762.84;10629650;27;20051;-53
2021/03/31 15:26:37;;;;;;;18.60;11.25;;;;;;;8.99;71.07;98755.00;10631962;27;20570;-54
2021/03/31 15:31:39;;;;;;;28.52;14.50;;;;;;;8.92;70.86;98746.03;10608422;27;20042;-55
2021/03/31 15:36:41;;;;;;;22.50;12.70;;;;;;;8.88;71.23;98736.00;10584568;28;20499;-54
2021/03/31 15:41:43;;;;;;;20.33;11.93;;;;;;;8.83;71.40;98738.22;10584114;28;20039;-54
2021/03/31 15:46:50;;;;;;;20.30;11.40;;;;;;;8.81;71.54;98732.31;10584827;28;20043;-56
2021/03/31 15:51:52;;;;;;;19.30;11.30;;;;;;;8.85;71.40;98728.41;10596864;28;20040;-52
2021/03/31 15:56:54;;;;;;;20.60;12.60;;;;;;;8.97;71.35;98741.19;10616588;28;20047;-53
2021/03/31 16:01:58;;;;;;;17.65;10.88;;;;;;;9.04;70.92;98736.19;10626579;27;20460;-55
2021/03/31 16:12:19;;;;;;;21.05;12.07;;;;;;;8.86;71.71;98733.50;10629271;28;20372;-53
2021/03/31 16:17:22;;;;;;;20.33;11.68;;;;;;;8.90;71.07;98731.44;10627535;27;20058;-55
2021/03/31 16:22:23;;;;;;;21.98;12.27;;;;;;;8.72;71.18;98726.13;10627667;28;20046;-54
2021/03/31 16:27:25;;;;;;;22.30;12.88;;;;;;;8.60;71.45;98724.63;10627130;27;20054;-54
2021/03/31 16:32:29;;;;;;;22.40;10.95;;;;;;;8.58;71.45;98719.53;10626157;28;20047;-53
2021/03/31 16:37:31;;;;;;;;;;;;;;;8.68;71.73;98709.00;10629829;27;20491;-54
2021/03/31 16:42:32;;;;;;;24.52;12.07;;;;;;;8.64;71.77;98713.72;10622043;27;19924;-54
2021/03/31 16:47:36;;;;;;;21.90;12.43;;;;;;;8.60;71.79;98701.88;10636160;27;20111;-53
2021/03/31 16:52:37;;;;;;;26.10;14.15;;;;;;;8.44;72.17;98709.50;10633070;27;20064;-55
2021/03/31 16:57:39;;;;;;;25.80;12.68;;;;;;;8.43;72.11;98705.22;10634252;27;20059;-54
2021/03/31 17:02:41;;;;;;;18.73;11.07;;;;;;;8.42;71.69;98695.72;10634340;27;20063;-54
2021/03/31 17:07:43;;;;;;;23.30;13.02;;;;;;;8.40;71.93;98697.66;10632506;27;20047;-52
2021/03/31 17:12:45;;;;;;;26.90;13.45;;;;;;;8.39;71.95;98691.59;10633070;27;20123;-53
2021/03/31 17:17:47;;;;;;;24.92;12.68;;;;;;;8.53;71.94;98690.34;10633319;27;20047;-54
2021/03/31 17:22:49;;;;;;;24.65;13.70;;;;;;;8.58;71.46;98676.78;10633318;27;20039;-53
2021/03/31 17:27:51;;;;;;;25.65;13.27;;;;;;;8.65;71.56;98686.56;10635186;27;20497;-54
2021/03/31 17:32:54;;;;;;;27.08;13.13;;;;;;;8.68;71.61;98698.53;10631835;27;20042;-51
2021/03/31 17:37:58;;;;;;;25.13;13.77;;;;;;;8.74;71.60;98677.84;10631276;27;20082;-53
2021/03/31 17:43:03;;;;;;;24.73;13.07;;;;;;;8.74;71.49;98683.09;10633973;27;20051;-53
2021/03/31 17:48:06;;;;;;;25.05;12.18;;;;;;;8.63;71.86;98675.41;10632247;27;20080;-51
2021/03/31 17:53:11;;;;;;;26.13;13.32;;;;;;;8.61;71.82;98682.56;10633616;27;20050;-53
2021/03/31 17:58:12;;;;;;;24.20;12.85;;;;;;;8.62;71.74;98678.16;10634261;27;20051;-53
2021/03/31 18:03:15;;;;;;;27.50;12.73;;;;;;;8.69;71.65;98674.81;10633524;27;20139;-53
2021/03/31 18:08:17;;;;;;;25.58;14.10;;;;;;;8.78;71.35;98667.06;10631623;27;20047;-54
2021/03/31 18:13:21;;;;;;;28.20;12.50;;;;;;;8.86;71.34;98660.13;10631344;27;20047;-58
2021/03/31 18:18:24;;;;;;;25.40;13.40;;;;;;;8.95;71.43;98658.44;10630574;27;20065;-53
2021/03/31 18:23:25;;;;;;;27.90;14.18;;;;;;;8.88;71.48;98662.59;10629972;27;20043;-56
2021/03/31 18:28:27;;;;;;;24.05;13.65;;;;;;;8.86;71.57;98647.00;10630074;27;20059;-54
2021/03/31 18:33:30;;;;;;;24.80;12.05;;;;;;;8.93;71.47;98653.34;10630047;27;20485;-59
2021/03/31 18:38:31;;;;;;;26.95;13.80;;;;;;;8.88;71.50;98646.88;10633229;27;20431;-54
2021/03/31 18:43:34;;;;;;;24.65;14.32;;;;;;;8.87;71.67;98634.75;10633266;27;20073;-53
2021/03/31 18:48:36;;;;;;;27.52;13.48;;;;;;;8.88;71.52;98620.66;10629393;27;20062;-54
2021/03/31 18:53:38;;;;;;;29.75;13.32;;;;;;;8.86;71.56;98633.09;10631075;27;20134;-55
2021/03/31 18:58:41;;;;;;;28.33;14.10;;;;;;;8.88;71.69;98621.50;10628441;27;20055;-55
2021/03/31 19:03:43;;;;;;;27.70;13.67;;;;;;;9.01;71.07;98621.13;10628339;27;20050;-53
2021/03/31 19:14:02;;;;;;;28.38;14.55;;;;;;;9.18;70.90;98622.97;10626264;27;20053;-54
2021/03/31 19:19:05;;;;;;;28.77;14.23;;;;;;;9.27;70.95;98623.88;10627724;27;20055;-52
2021/03/31 19:24:07;;;;;;;25.65;13.60;;;;;;;9.33;70.96;98617.19;10626942;27;20133;-52
2021/03/31 19:29:09;;;;;;;21.95;13.20;;;;;;;9.40;70.87;98602.53;10627498;27;20479;-53
2021/03/31 19:34:12;;;;;;;22.55;12.13;;;;;;;9.51;70.55;98606.72;10628969;27;20047;-53
2021/03/31 19:39:14;;;;;;;21.50;11.75;;;;;;;9.57;70.76;98606.94;10626306;27;20055;-52
2021/03/31 19:44:16;;;;;;;19.50;10.68;;;;;;;9.61;70.44;98596.97;10625932;27;20483;-52
2021/03/31 19:49:22;;;;;;;21.35;11.27;;;;;;;9.63;70.45;98601.06;10626623;27;20064;-52
2021/03/31 19:54:24;;;;;;;20.40;10.82;;;;;;;9.51;70.45;98602.28;10626396;27;20054;-52
2021/03/31 19:59:25;;;;;;;20.00;10.88;;;;;;;9.52;71.04;98601.31;10627502;27;20076;-52
2021/03/31 20:04:29;;;;;;;20.38;11.95;;;;;;;9.64;70.48;98601.94;10628543;27;20046;-52
2021/03/31 20:09:31;;;;;;;19.20;11.07;;;;;;;9.72;70.19;98601.97;10626132;27;20111;-53
2021/03/31 20:14:33;;;;;;;20.90;10.65;;;;;;;9.74;70.17;98604.47;10633472;27;20035;-53
2021/03/31 20:19:35;;;;;;;22.45;11.98;;;;;;;9.71;70.05;98599.50;10633690;27;20080;-54
2021/03/31 20:24:37;;;;;;;17.38;10.93;;;;;;;9.71;70.19;98597.72;10634523;27;20460;-52
2021/03/31 20:29:40;;;;;;;20.30;11.65;;;;;;;9.65;70.34;98593.88;10634065;27;20047;-52
2021/03/31 20:34:49;;;;;;;18.42;11.00;;;;;;;9.66;70.42;98592.91;10634321;27;20082;-53
2021/03/31 20:39:50;;;;;;;18.52;11.02;;;;;;;9.66;70.35;98586.84;10635494;27;20055;-53
2021/03/31 20:44:52;;;;;;;20.42;11.30;;;;;;;9.68;69.73;98585.72;10636066;27;20125;-53
2021/03/31 20:49:54;;;;;;;16.33;10.20;;;;;;;9.61;70.06;98587.31;10635886;27;20107;-52
2021/03/31 20:54:56;;;;;;;20.30;12.48;;;;;;;9.60;70.59;98584.81;10631721;27;20054;-54
2021/03/31 20:59:58;;;;;;;18.92;10.60;;;;;;;9.58;70.01;98590.22;10633134;27;20475;-53
2021/03/31 21:05:00;;;;;;;17.13;10.18;;;;;;;9.65;70.24;98587.81;10632972;27;20425;-52
2021/03/31 21:10:03;;;;;;;19.15;10.40;;;;;;;9.69;69.93;98587.34;10635541;27;20466;-53
2021/03/31 21:15:05;;;;;;;18.20;10.60;;;;;;;9.67;69.88;98586.69;10631836;27;20154;-54
2021/03/31 21:20:08;;;;;;;22.17;11.50;;;;;;;9.50;70.09;98582.28;10632661;27;20039;-52
2021/03/31 21:25:11;;;;;;;17.43;10.30;;;;;;;9.44;70.45;98581.09;10630707;27;20226;-53
2021/03/31 21:30:13;;;;;;;18.75;10.30;;;;;;;9.37;70.42;98573.97;10630504;27;20047;-53
2021/03/31 21:35:17;;;;;;;16.80;9.88;;;;;;;9.24;70.68;98576.97;10632117;27;20047;-54
2021/03/31 21:40:20;;;;;;;15.45;9.60;;;;;;;9.20;70.84;98584.31;10631660;27;20051;-54
2021/03/31 21:45:21;;;;;;;18.83;9.60;;;;;;;9.14;71.10;98574.44;10631648;27;20430;-55
2021/03/31 21:50:24;;;;;;;20.40;9.45;;;;;;;9.15;70.75;98575.25;10631365;27;20039;-53
2021/03/31 21:55:26;;;;;;;16.85;8.70;;;;;;;9.21;70.75;98572.84;10631098;27;20043;-53
2021/03/31 22:00:30;;;;;;;13.55;8.48;;;;;;;9.25;70.60;98569.94;10630155;27;20142;-51
2021/03/31 22:05:33;;;;;;;15.43;8.05;;;;;;;9.23;70.65;98568.25;10631701;27;20120;-53
2021/03/31 22:10:37;;;;;;;14.88;8.18;;;;;;;9.28;70.47;98573.06;10631436;27;20054;-53
2021/03/31 22:15:40;;;;;;;12.75;7.25;;;;;;;9.27;70.47;98567.97;10631431;27;20134;-53
2021/03/31 22:20:42;;;;;;;14.32;7.78;;;;;;;9.25;70.64;98567.31;10634522;27;20047;-55
2021/03/31 22:25:44;;;;;;;11.40;6.43;;;;;;;9.30;70.44;98563.28;10631119;27;20118;-53
2021/03/31 22:30:47;;;;;;;12.43;6.18;;;;;;;9.33;70.58;98556.88;10630124;27;20111;-54
2021/03/31 22:35:50;;;;;;;9.27;5.35;;;;;;;9.38;70.13;98544.97;10629806;27;20043;-54
2021/03/31 22:40:52;;;;;;;10.27;5.73;;;;;;;9.36;70.07;98548.69;10631096;27;20454;-52
2021/03/31 22:45:54;;;;;;;11.13;5.72;;;;;;;9.43;69.99;98542.72;10629261;27;20076;-54
2021/03/31 22:50:56;;;;;;;11.50;6.63;;;;;;;9.45;69.70;98545.19;10634647;27;20081;-51
2021/03/31 22:56:00;;;;;;;11.13;5.47;;;;;;;9.49;69.78;98554.41;10630142;27;20066;-53
2021/03/31 23:01:04;;;;;;;9.55;5.47;;;;;;;9.41;69.57;98549.09;10627184;27;20043;-53
2021/03/31 23:06:08;;;;;;;;;;;;;;;9.41;70.38;98554.34;10628692;27;20567;-56
2021/03/31 23:11:10;;;;;;;10.68;6.18;;;;;;;9.37;70.08;98547.75;10626774;27;20336;-56
2021/03/31 23:16:12;;;;;;;10.88;6.20;;;;;;;9.32;70.31;98550.00;10628599;27;20440;-52
2021/03/31 23:21:14;;;;;;;10.23;5.88;;;;;;;9.36;69.85;98546.94;10627202;27;20143;-55
2021/03/31 23:26:17;;;;;;;12.13;6.63;;;;;;;9.34;70.17;98540.19;10630522;27;20537;-54
2021/03/31 23:31:19;;;;;;;10.83;5.73;;;;;;;9.33;70.25;98539.38;10628692;27;20047;-53
2021/03/31 23:36:21;;;;;;;11.60;5.90;;;;;;;9.36;70.31;98532.97;10626530;27;20051;-54
2021/03/31 23:41:25;;;;;;;9.35;5.40;;;;;;;9.26;69.97;98529.63;10626886;27;20050;-52
2021/03/31 23:46:26;;;;;;;10.95;5.05;;;;;;;9.16;70.44;98534.94;10625465;27;20399;-54
2021/03/31 23:51:29;;;;;;;11.35;6.18;;;;;;;9.17;70.57;98531.34;10624646;27;20039;-53
2021/03/31 23:56:31;;;;;;;9.13;5.43;;;;;;;9.20;70.16;98533.66;10626266;27;20061;-53
